Wind From: 13-12-2017 10:08 Until: 14-12-2017 06:00 warning for: Wind Level: Yellow info button

Although rather usual in this region, locally or potentially dangerous phenomena are expected. (such as local winds, summer thunderstorms, rising streams or high waves) Be aware and pay attention to the latest weather updates, especially if you carry out activities exposed to weather or close to a stream or shoreline. 


Meteo18 Weather Cam more information Meteo18 Weather Cam


Thunder radar more information blitzortung!


Rain radar more information rain snow radar


Visit our other weather sites:

Template documentation
and downloads

And another site



Weather Underground History page Text

Daily Summary for November 1, 2017 Units:  Both    English   Metric
« Previous Day
Next Day »
Daily Weekly Monthly Yearly Custom
  High: Low: Average:
Temperature: 59.2 °F /  15.1 °C 37.2 °F /  2.9 °C 48.2 °F /  9 °C
Dew Point: 44.4 °F /  6.9 °C 34.9 °F /  1.6 °C 40.6 °F /  4.8 °C
Humidity: 92 % 56 % 76 %
Wind Speed: 8 mph /  12.9 km/h - 0.9 mph /  1.5 km/h
Wind Gust: 10 mph /  16.1 km/h - -
Wind:- - SSE
Pressure: 30.3 in /  1025.6 hPa 30.1 in /  1019.5 hPa -
Precipitation: 0 in /  0.0 mm    
Historical Graphs
 
 
Tabular Data for November 1, 2017
Time Temperature Dew Point Pressure Wind Wind Speed Wind Gust Humidity Rainfall Rate (Hourly)
00:02 39.7 °F /  4.3 °C 36.5 °F /  2.5 °C 30.3 in /  1025.6 hPa Calm   1 mph /  1.6 km/h 88 % 0 in /  0.0 mm
00:12 39 °F /  3.9 °C 36.1 °F /  2.3 °C 30.3 in /  1025.3 hPa WNW 1 mph /  1.6 km/h 1 mph /  1.6 km/h 89 % 0 in /  0.0 mm
00:17 39 °F /  3.9 °C 36.3 °F /  2.4 °C 30.3 in /  1025.6 hPa Calm   1 mph /  1.6 km/h 90 % 0 in /  0.0 mm
00:22 39 °F /  3.9 °C 36.3 °F /  2.4 °C 30.3 in /  1025.6 hPa Calm   1 mph /  1.6 km/h 90 % 0 in /  0.0 mm
00:32 38.8 °F /  3.8 °C 36.1 °F /  2.3 °C 30.3 in /  1025.3 hPa Calm   1 mph /  1.6 km/h 90 % 0 in /  0.0 mm
00:42 38.7 °F /  3.7 °C 36 °F /  2.2 °C 30.3 in /  1025.3 hPa Calm   1 mph /  1.6 km/h 90 % 0 in /  0.0 mm
00:52 38.1 °F /  3.4 °C 35.4 °F /  1.9 °C 30.3 in /  1025.3 hPa Calm   1 mph /  1.6 km/h 90 % 0 in /  0.0 mm
00:57 38.1 °F /  3.4 °C 35.8 °F /  2.1 °C 30.3 in /  1025.3 hPa Calm   1 mph /  1.6 km/h 91 % 0 in /  0.0 mm
01:02 37.9 °F /  3.3 °C 35.6 °F /  2.0 °C 30.3 in /  1025.3 hPa WNW 1 mph /  1.6 km/h 1 mph /  1.6 km/h 91 % 0 in /  0.0 mm
01:12 38.1 °F /  3.4 °C 35.8 °F /  2.1 °C 30.3 in /  1025.3 hPa North 1 mph /  1.6 km/h 1 mph /  1.6 km/h 91 % 0 in /  0.0 mm
01:17 37.8 °F /  3.2 °C 35.4 °F /  1.9 °C 30.3 in /  1025.3 hPa Calm   2 mph /  3.2 km/h 91 % 0 in /  0.0 mm
01:22 37.8 °F /  3.2 °C 35.4 °F /  1.9 °C 30.3 in /  1025.3 hPa North 1 mph /  1.6 km/h 2 mph /  3.2 km/h 91 % 0 in /  0.0 mm
01:27 37.4 °F /  3.0 °C 35.1 °F /  1.7 °C 30.3 in /  1025.3 hPa NNE 1 mph /  1.6 km/h 2 mph /  3.2 km/h 91 % 0 in /  0.0 mm
01:32 37.2 °F /  2.9 °C 34.9 °F /  1.6 °C 30.3 in /  1024.9 hPa North 1 mph /  1.6 km/h 2 mph /  3.2 km/h 91 % 0 in /  0.0 mm
01:37 37.6 °F /  3.1 °C 35.4 °F /  1.9 °C 30.3 in /  1024.9 hPa Calm   2 mph /  3.2 km/h 92 % 0 in /  0.0 mm
01:42 37.8 °F /  3.2 °C 35.6 °F /  2.0 °C 30.3 in /  1024.9 hPa Calm   2 mph /  3.2 km/h 92 % 0 in /  0.0 mm
01:47 37.9 °F /  3.3 °C 35.8 °F /  2.1 °C 30.3 in /  1024.9 hPa Calm   1 mph /  1.6 km/h 92 % 0 in /  0.0 mm
01:52 38.1 °F /  3.4 °C 36 °F /  2.2 °C 30.3 in /  1024.9 hPa Calm   1 mph /  1.6 km/h 92 % 0 in /  0.0 mm
01:57 38.1 °F /  3.4 °C 35.8 °F /  2.1 °C 30.3 in /  1024.9 hPa Calm   1 mph /  1.6 km/h 91 % 0 in /  0.0 mm
02:02 38.1 °F /  3.4 °C 35.8 °F /  2.1 °C 30.3 in /  1024.9 hPa Calm   1 mph /  1.6 km/h 91 % 0 in /  0.0 mm
02:07 38.1 °F /  3.4 °C 35.8 °F /  2.1 °C 30.3 in /  1024.9 hPa Calm   1 mph /  1.6 km/h 91 % 0 in /  0.0 mm
02:17 37.8 °F /  3.2 °C 35.4 °F /  1.9 °C 30.3 in /  1024.9 hPa WNW 1 mph /  1.6 km/h 1 mph /  1.6 km/h 91 % 0 in /  0.0 mm
02:27 37.6 °F /  3.1 °C 35.2 °F /  1.8 °C 30.3 in /  1024.9 hPa WNW 1 mph /  1.6 km/h 1 mph /  1.6 km/h 91 % 0 in /  0.0 mm
02:32 37.8 °F /  3.2 °C 35.6 °F /  2.0 °C 30.3 in /  1024.9 hPa WNW 1 mph /  1.6 km/h 2 mph /  3.2 km/h 92 % 0 in /  0.0 mm
02:37 37.9 °F /  3.3 °C 35.8 °F /  2.1 °C 30.3 in /  1024.9 hPa Calm   2 mph /  3.2 km/h 92 % 0 in /  0.0 mm
02:42 38.3 °F /  3.5 °C 36.1 °F /  2.3 °C 30.3 in /  1024.9 hPa Calm   2 mph /  3.2 km/h 92 % 0 in /  0.0 mm
02:47 37.9 °F /  3.3 °C 35.6 °F /  2.0 °C 30.3 in /  1024.9 hPa Calm   2 mph /  3.2 km/h 91 % 0 in /  0.0 mm
02:52 38.1 °F /  3.4 °C 36 °F /  2.2 °C 30.3 in /  1024.9 hPa Calm   1 mph /  1.6 km/h 92 % 0 in /  0.0 mm
02:57 38.3 °F /  3.5 °C 36.1 °F /  2.3 °C 30.3 in /  1024.9 hPa Calm   1 mph /  1.6 km/h 92 % 0 in /  0.0 mm
03:02 38.7 °F /  3.7 °C 36.5 °F /  2.5 °C 30.3 in /  1024.9 hPa Calm   1 mph /  1.6 km/h 92 % 0 in /  0.0 mm
03:12 39 °F /  3.9 °C 36.7 °F /  2.6 °C 30.3 in /  1024.9 hPa NNE 2 mph /  3.2 km/h 2 mph /  3.2 km/h 91 % 0 in /  0.0 mm
03:17 39.2 °F /  4.0 °C 36.5 °F /  2.5 °C 30.3 in /  1024.9 hPa NNE 1 mph /  1.6 km/h 3 mph /  4.8 km/h 90 % 0 in /  0.0 mm
03:22 38.8 °F /  3.8 °C 36 °F /  2.2 °C 30.3 in /  1024.6 hPa North 1 mph /  1.6 km/h 3 mph /  4.8 km/h 89 % 0 in /  0.0 mm
03:27 38.3 °F /  3.5 °C 35.6 °F /  2.0 °C 30.3 in /  1024.6 hPa North 1 mph /  1.6 km/h 3 mph /  4.8 km/h 90 % 0 in /  0.0 mm
03:32 38.3 °F /  3.5 °C 36 °F /  2.2 °C 30.3 in /  1024.6 hPa Calm   2 mph /  3.2 km/h 91 % 0 in /  0.0 mm
03:37 38.7 °F /  3.7 °C 36.3 °F /  2.4 °C 30.3 in /  1024.6 hPa Calm   2 mph /  3.2 km/h 91 % 0 in /  0.0 mm
03:42 38.8 °F /  3.8 °C 36.5 °F /  2.5 °C 30.3 in /  1024.6 hPa NNW 1 mph /  1.6 km/h 1 mph /  1.6 km/h 91 % 0 in /  0.0 mm
03:47 39 °F /  3.9 °C 36.3 °F /  2.4 °C 30.3 in /  1024.6 hPa Calm   1 mph /  1.6 km/h 90 % 0 in /  0.0 mm
03:52 39 °F /  3.9 °C 36.3 °F /  2.4 °C 30.3 in /  1024.6 hPa NNW 1 mph /  1.6 km/h 1 mph /  1.6 km/h 90 % 0 in /  0.0 mm
03:57 39.2 °F /  4.0 °C 36.5 °F /  2.5 °C 30.3 in /  1024.6 hPa NNW 1 mph /  1.6 km/h 1 mph /  1.6 km/h 90 % 0 in /  0.0 mm
04:02 38.1 °F /  3.4 °C 35.4 °F /  1.9 °C 30.3 in /  1024.6 hPa Calm   1 mph /  1.6 km/h 90 % 0 in /  0.0 mm
08:12 39.9 °F /  4.4 °C 36.1 °F /  2.3 °C 30.3 in /  1024.3 hPa Calm   1 mph /  1.6 km/h 86 % 0 in /  0 mm
08:17 40.5 °F /  4.7 °C 36.3 °F /  2.4 °C 30.2 in /  1023.9 hPa Calm   2 mph /  3.2 km/h 85 % 0 in /  0.0 mm
08:22 40.6 °F /  4.8 °C 36.5 °F /  2.5 °C 30.3 in /  1024.3 hPa Calm   2 mph /  3.2 km/h 85 % 0 in /  0.0 mm
08:27 41 °F /  5.0 °C 36.5 °F /  2.5 °C 30.3 in /  1024.3 hPa Calm   1 mph /  1.6 km/h 84 % 0 in /  0.0 mm
08:32 41.4 °F /  5.2 °C 36.5 °F /  2.5 °C 30.3 in /  1024.3 hPa Calm   1 mph /  1.6 km/h 83 % 0 in /  0.0 mm
08:37 41.7 °F /  5.4 °C 36.9 °F /  2.7 °C 30.3 in /  1024.3 hPa Calm   1 mph /  1.6 km/h 83 % 0 in /  0.0 mm
08:42 42.1 °F /  5.6 °C 37 °F /  2.8 °C 30.3 in /  1024.3 hPa Calm   1 mph /  1.6 km/h 82 % 0 in /  0.0 mm
08:47 42.3 °F /  5.7 °C 37.2 °F /  2.9 °C 30.3 in /  1024.3 hPa Calm   1 mph /  1.6 km/h 82 % 0 in /  0.0 mm
08:52 42.4 °F /  5.8 °C 37 °F /  2.8 °C 30.3 in /  1024.3 hPa SE 1 mph /  1.6 km/h 2 mph /  3.2 km/h 81 % 0 in /  0.0 mm
08:57 42.8 °F /  6.0 °C 37 °F /  2.8 °C 30.3 in /  1024.3 hPa SE 1 mph /  1.6 km/h 3 mph /  4.8 km/h 80 % 0 in /  0.0 mm
09:02 43 °F /  6.1 °C 37.6 °F /  3.1 °C 30.3 in /  1024.3 hPa Calm   3 mph /  4.8 km/h 81 % 0 in /  0.0 mm
09:12 43.3 °F /  6.3 °C 37.6 °F /  3.1 °C 30.3 in /  1024.3 hPa Calm   3 mph /  4.8 km/h 80 % 0 in /  0.0 mm
09:17 43.5 °F /  6.4 °C 37.8 °F /  3.2 °C 30.3 in /  1024.3 hPa SE 2 mph /  3.2 km/h 3 mph /  4.8 km/h 80 % 0 in /  0.0 mm
09:22 43.5 °F /  6.4 °C 37.4 °F /  3.0 °C 30.3 in /  1024.3 hPa SSE 1 mph /  1.6 km/h 3 mph /  4.8 km/h 79 % 0 in /  0.0 mm
09:27 43.5 °F /  6.4 °C 37 °F /  2.8 °C 30.3 in /  1024.3 hPa Calm   5 mph /  8.0 km/h 78 % 0 in /  0.0 mm
09:32 43.7 °F /  6.5 °C 37.2 °F /  2.9 °C 30.3 in /  1024.3 hPa ESE 1 mph /  1.6 km/h 5 mph /  8.0 km/h 78 % 0 in /  0.0 mm
09:37 44.2 °F /  6.8 °C 38.1 °F /  3.4 °C 30.3 in /  1024.3 hPa Calm   5 mph /  8.0 km/h 79 % 0 in /  0.0 mm
09:42 44.4 °F /  6.9 °C 38.3 °F /  3.5 °C 30.3 in /  1024.3 hPa South 1 mph /  1.6 km/h 4 mph /  6.4 km/h 79 % 0 in /  0.0 mm
09:47 44.8 °F /  7.1 °C 37.9 °F /  3.3 °C 30.3 in /  1024.3 hPa East 1 mph /  1.6 km/h 4 mph /  6.4 km/h 77 % 0 in /  0.0 mm
09:57 44.8 °F /  7.1 °C 38.3 °F /  3.5 °C 30.3 in /  1024.3 hPa South 1 mph /  1.6 km/h 4 mph /  6.4 km/h 78 % 0 in /  0.0 mm
10:02 45.1 °F /  7.3 °C 38.7 °F /  3.7 °C 30.3 in /  1024.3 hPa SE 1 mph /  1.6 km/h 4 mph /  6.4 km/h 78 % 0 in /  0.0 mm
10:12 45.9 °F /  7.7 °C 39 °F /  3.9 °C 30.2 in /  1023.9 hPa SSW 2 mph /  3.2 km/h 4 mph /  6.4 km/h 77 % 0 in /  0.0 mm
10:17 45.9 °F /  7.7 °C 39.4 °F /  4.1 °C 30.3 in /  1024.3 hPa SE 1 mph /  1.6 km/h 4 mph /  6.4 km/h 78 % 0 in /  0.0 mm
10:22 46 °F /  7.8 °C 39.6 °F /  4.2 °C 30.2 in /  1023.9 hPa ESE 2 mph /  3.2 km/h 5 mph /  8.0 km/h 78 % 0 in /  0.0 mm
10:27 46 °F /  7.8 °C 39.2 °F /  4.0 °C 30.2 in /  1023.9 hPa SSW 3 mph /  4.8 km/h 5 mph /  8.0 km/h 77 % 0 in /  0.0 mm
10:32 46.4 °F /  8.0 °C 39.6 °F /  4.2 °C 30.2 in /  1023.9 hPa ESE 1 mph /  1.6 km/h 5 mph /  8.0 km/h 77 % 0 in /  0.0 mm
10:42 47.5 °F /  8.6 °C 39.6 °F /  4.2 °C 30.2 in /  1023.9 hPa ESE 2 mph /  3.2 km/h 5 mph /  8.0 km/h 74 % 0 in /  0.0 mm
10:47 47.7 °F /  8.7 °C 40.1 °F /  4.5 °C 30.2 in /  1023.9 hPa SSW 2 mph /  3.2 km/h 5 mph /  8.0 km/h 75 % 0 in /  0.0 mm
10:52 48 °F /  8.9 °C 40.1 °F /  4.5 °C 30.2 in /  1023.9 hPa Calm   5 mph /  8.0 km/h 74 % 0 in /  0.0 mm
10:57 48.6 °F /  9.2 °C 39.9 °F /  4.4 °C 30.2 in /  1023.9 hPa ESE 1 mph /  1.6 km/h 6 mph /  9.7 km/h 72 % 0 in /  0.0 mm
11:02 48.7 °F /  9.3 °C 40.5 °F /  4.7 °C 30.2 in /  1023.9 hPa ESE 1 mph /  1.6 km/h 6 mph /  9.7 km/h 73 % 0 in /  0.0 mm
11:12 49.6 °F /  9.8 °C 40.6 °F /  4.8 °C 30.2 in /  1023.6 hPa East 1 mph /  1.6 km/h 9 mph /  14.5 km/h 71 % 0 in /  0.0 mm
11:17 50.2 °F /  10.1 °C 41.2 °F /  5.1 °C 30.2 in /  1023.9 hPa East 1 mph /  1.6 km/h 9 mph /  14.5 km/h 71 % 0 in /  0.0 mm
11:22 50.4 °F /  10.2 °C 41.4 °F /  5.2 °C 30.2 in /  1023.6 hPa ESE 1 mph /  1.6 km/h 9 mph /  14.5 km/h 71 % 0 in /  0.0 mm
11:27 50.9 °F /  10.5 °C 41.9 °F /  5.5 °C 30.2 in /  1023.6 hPa SE 1 mph /  1.6 km/h 6 mph /  9.7 km/h 71 % 0 in /  0.0 mm
11:32 51.4 °F /  10.8 °C 41.5 °F /  5.3 °C 30.2 in /  1023.6 hPa East 6 mph /  9.7 km/h 6 mph /  9.7 km/h 69 % 0 in /  0.0 mm
11:37 51.8 °F /  11.0 °C 41.9 °F /  5.5 °C 30.2 in /  1023.6 hPa SE 2 mph /  3.2 km/h 7 mph /  11.3 km/h 69 % 0 in /  0.0 mm
11:42 52.2 °F /  11.2 °C 41.5 °F /  5.3 °C 30.2 in /  1023.2 hPa SE 2 mph /  3.2 km/h 8 mph /  12.9 km/h 67 % 0 in /  0.0 mm
11:47 52.2 °F /  11.2 °C 41.2 °F /  5.1 °C 30.2 in /  1023.2 hPa ESE 4 mph /  6.4 km/h 8 mph /  12.9 km/h 66 % 0 in /  0.0 mm
11:52 52.2 °F /  11.2 °C 41.2 °F /  5.1 °C 30.2 in /  1023.2 hPa ESE 4 mph /  6.4 km/h 8 mph /  12.9 km/h 66 % 0 in /  0.0 mm
12:02 53.2 °F /  11.8 °C 41.7 °F /  5.4 °C 30.2 in /  1023.2 hPa ESE 6 mph /  9.7 km/h 7 mph /  11.3 km/h 65 % 0 in /  0.0 mm
12:12 53.8 °F /  12.1 °C 42.3 °F /  5.7 °C 30.2 in /  1022.9 hPa ENE 4 mph /  6.4 km/h 9 mph /  14.5 km/h 65 % 0 in /  0.0 mm
12:17 54.3 °F /  12.4 °C 42.4 °F /  5.8 °C 30.2 in /  1022.9 hPa Calm   9 mph /  14.5 km/h 64 % 0 in /  0.0 mm
12:27 54.9 °F /  12.7 °C 42.1 °F /  5.6 °C 30.2 in /  1022.6 hPa South 2 mph /  3.2 km/h 8 mph /  12.9 km/h 62 % 0 in /  0.0 mm
12:32 55 °F /  12.8 °C 42.3 °F /  5.7 °C 30.2 in /  1022.2 hPa ESE 3 mph /  4.8 km/h 8 mph /  12.9 km/h 62 % 0 in /  0.0 mm
12:42 55.6 °F /  13.1 °C 42.3 °F /  5.7 °C 30.2 in /  1022.2 hPa SE 3 mph /  4.8 km/h 8 mph /  12.9 km/h 61 % 0 in /  0.0 mm
12:47 55.8 °F /  13.2 °C 43 °F /  6.1 °C 30.2 in /  1022.2 hPa SE 3 mph /  4.8 km/h 8 mph /  12.9 km/h 62 % 0 in /  0.0 mm
12:52 55.8 °F /  13.2 °C 42.4 °F /  5.8 °C 30.2 in /  1021.9 hPa Calm   8 mph /  12.9 km/h 61 % 0 in /  0.0 mm
12:57 55.9 °F /  13.3 °C 42.3 °F /  5.7 °C 30.2 in /  1021.9 hPa East 4 mph /  6.4 km/h 6 mph /  9.7 km/h 60 % 0 in /  0.0 mm
13:02 56.5 °F /  13.6 °C 42.8 °F /  6.0 °C 30.2 in /  1021.9 hPa East 2 mph /  3.2 km/h 6 mph /  9.7 km/h 60 % 0 in /  0.0 mm
13:12 56.3 °F /  13.5 °C 43.5 °F /  6.4 °C 30.2 in /  1021.9 hPa ESE 8 mph /  12.9 km/h 8 mph /  12.9 km/h 62 % 0 in /  0.0 mm
13:17 56.1 °F /  13.4 °C 41.9 °F /  5.5 °C 30.2 in /  1021.9 hPa ESE 4 mph /  6.4 km/h 9 mph /  14.5 km/h 59 % 0 in /  0.0 mm
13:22 56.1 °F /  13.4 °C 42.4 °F /  5.8 °C 30.2 in /  1021.6 hPa SSE 3 mph /  4.8 km/h 9 mph /  14.5 km/h 60 % 0 in /  0.0 mm
13:27 56.5 °F /  13.6 °C 43.2 °F /  6.2 °C 30.2 in /  1021.6 hPa SE 2 mph /  3.2 km/h 9 mph /  14.5 km/h 61 % 0 in /  0.0 mm
13:32 56.8 °F /  13.8 °C 43.2 °F /  6.2 °C 30.2 in /  1021.6 hPa East 2 mph /  3.2 km/h 8 mph /  12.9 km/h 60 % 0 in /  0.0 mm
13:37 57 °F /  13.9 °C 42.8 °F /  6.0 °C 30.2 in /  1021.6 hPa ESE 2 mph /  3.2 km/h 7 mph /  11.3 km/h 59 % 0 in /  0.0 mm
13:42 57.2 °F /  14.0 °C 43.5 °F /  6.4 °C 30.2 in /  1021.6 hPa SSE 2 mph /  3.2 km/h 7 mph /  11.3 km/h 60 % 0 in /  0.0 mm
13:47 57.2 °F /  14.0 °C 42.6 °F /  5.9 °C 30.2 in /  1021.2 hPa SE 4 mph /  6.4 km/h 7 mph /  11.3 km/h 58 % 0 in /  0.0 mm
13:52 57.7 °F /  14.3 °C 43.5 °F /  6.4 °C 30.2 in /  1021.2 hPa SSE 3 mph /  4.8 km/h 8 mph /  12.9 km/h 59 % 0 in /  0.0 mm
13:57 58.1 °F /  14.5 °C 43.9 °F /  6.6 °C 30.2 in /  1021.2 hPa Calm   8 mph /  12.9 km/h 59 % 0 in /  0.0 mm
14:02 58.5 °F /  14.7 °C 43.7 °F /  6.5 °C 30.2 in /  1021.2 hPa ESE 2 mph /  3.2 km/h 8 mph /  12.9 km/h 58 % 0 in /  0.0 mm
14:12 58.1 °F /  14.5 °C 43.3 °F /  6.3 °C 30.2 in /  1020.9 hPa SSE 2 mph /  3.2 km/h 7 mph /  11.3 km/h 58 % 0 in /  0.0 mm
14:17 58.1 °F /  14.5 °C 43.3 °F /  6.3 °C 30.2 in /  1020.9 hPa SSE 2 mph /  3.2 km/h 7 mph /  11.3 km/h 58 % 0 in /  0.0 mm
14:22 58.3 °F /  14.6 °C 43.2 °F /  6.2 °C 30.1 in /  1020.5 hPa SE 2 mph /  3.2 km/h 10 mph /  16.1 km/h 57 % 0 in /  0.0 mm
14:27 58.6 °F /  14.8 °C 44.4 °F /  6.9 °C 30.2 in /  1020.9 hPa ESE 5 mph /  8.0 km/h 10 mph /  16.1 km/h 59 % 0 in /  0.0 mm
14:32 58.8 °F /  14.9 °C 43.7 °F /  6.5 °C 30.1 in /  1020.5 hPa SW 6 mph /  9.7 km/h 10 mph /  16.1 km/h 57 % 0 in /  0.0 mm
14:37 59.2 °F /  15.1 °C 43.5 °F /  6.4 °C 30.1 in /  1020.5 hPa SSE 4 mph /  6.4 km/h 8 mph /  12.9 km/h 56 % 0 in /  0.0 mm
14:42 58.8 °F /  14.9 °C 43.7 °F /  6.5 °C 30.1 in /  1020.5 hPa Calm   8 mph /  12.9 km/h 57 % 0 in /  0.0 mm
14:47 58.8 °F /  14.9 °C 43.7 °F /  6.5 °C 30.1 in /  1020.5 hPa ESE 1 mph /  1.6 km/h 8 mph /  12.9 km/h 57 % 0 in /  0.0 mm
14:52 58.6 °F /  14.8 °C 43 °F /  6.1 °C 30.1 in /  1020.5 hPa SSE 1 mph /  1.6 km/h 7 mph /  11.3 km/h 56 % 0 in /  0.0 mm
14:57 58.6 °F /  14.8 °C 43.5 °F /  6.4 °C 30.1 in /  1020.5 hPa SSW 3 mph /  4.8 km/h 6 mph /  9.7 km/h 57 % 0 in /  0.0 mm
15:02 58.6 °F /  14.8 °C 43.5 °F /  6.4 °C 30.1 in /  1020.5 hPa WNW 1 mph /  1.6 km/h 6 mph /  9.7 km/h 57 % 0 in /  0.0 mm
15:12 58.6 °F /  14.8 °C 43.9 °F /  6.6 °C 30.1 in /  1020.5 hPa Calm   6 mph /  9.7 km/h 58 % 0 in /  0.0 mm
15:17 58.8 °F /  14.9 °C 43.7 °F /  6.5 °C 30.1 in /  1020.5 hPa Calm   5 mph /  8.0 km/h 57 % 0 in /  0.0 mm
15:22 59 °F /  15.0 °C 43.7 °F /  6.5 °C 30.1 in /  1020.2 hPa SSE 1 mph /  1.6 km/h 5 mph /  8.0 km/h 57 % 0 in /  0.0 mm
15:27 58.8 °F /  14.9 °C 43.2 °F /  6.2 °C 30.1 in /  1020.2 hPa South 1 mph /  1.6 km/h 4 mph /  6.4 km/h 56 % 0 in /  0.0 mm
15:32 58.8 °F /  14.9 °C 43.7 °F /  6.5 °C 30.1 in /  1020.2 hPa ESE 1 mph /  1.6 km/h 5 mph /  8.0 km/h 57 % 0 in /  0.0 mm
15:37 58.6 °F /  14.8 °C 43.9 °F /  6.6 °C 30.1 in /  1020.2 hPa SSW 3 mph /  4.8 km/h 5 mph /  8.0 km/h 58 % 0 in /  0.0 mm
15:42 58.5 °F /  14.7 °C 43.7 °F /  6.5 °C 30.1 in /  1019.9 hPa SSE 1 mph /  1.6 km/h 5 mph /  8.0 km/h 58 % 0 in /  0.0 mm
15:47 58.3 °F /  14.6 °C 43.5 °F /  6.4 °C 30.1 in /  1020.2 hPa South 1 mph /  1.6 km/h 5 mph /  8.0 km/h 58 % 0 in /  0.0 mm
15:52 58.3 °F /  14.6 °C 44.1 °F /  6.7 °C 30.1 in /  1020.2 hPa Calm   5 mph /  8.0 km/h 59 % 0 in /  0.0 mm
15:57 58.1 °F /  14.5 °C 43.9 °F /  6.6 °C 30.1 in /  1020.2 hPa SSW 2 mph /  3.2 km/h 4 mph /  6.4 km/h 59 % 0 in /  0.0 mm
16:02 57.9 °F /  14.4 °C 43.7 °F /  6.5 °C 30.1 in /  1020.2 hPa SSW 5 mph /  8.0 km/h 5 mph /  8.0 km/h 59 % 0 in /  0.0 mm
16:12 57.7 °F /  14.3 °C 43.9 °F /  6.6 °C 30.1 in /  1020.2 hPa Calm   5 mph /  8.0 km/h 60 % 0 in /  0.0 mm
16:17 57.6 °F /  14.2 °C 43.7 °F /  6.5 °C 30.1 in /  1020.2 hPa SSW 2 mph /  3.2 km/h 5 mph /  8.0 km/h 60 % 0 in /  0.0 mm
16:22 57.2 °F /  14.0 °C 43.5 °F /  6.4 °C 30.1 in /  1020.2 hPa SSW 1 mph /  1.6 km/h 4 mph /  6.4 km/h 60 % 0 in /  0.0 mm
16:27 56.8 °F /  13.8 °C 43.9 °F /  6.6 °C 30.1 in /  1020.2 hPa SSW 1 mph /  1.6 km/h 5 mph /  8.0 km/h 62 % 0 in /  0.0 mm
16:32 56.7 °F /  13.7 °C 43.3 °F /  6.3 °C 30.1 in /  1020.2 hPa SSE 3 mph /  4.8 km/h 5 mph /  8.0 km/h 61 % 0 in /  0.0 mm
16:37 56.5 °F /  13.6 °C 43.7 °F /  6.5 °C 30.1 in /  1020.2 hPa South 2 mph /  3.2 km/h 5 mph /  8.0 km/h 62 % 0 in /  0.0 mm
16:42 56.1 °F /  13.4 °C 43.7 °F /  6.5 °C 30.1 in /  1020.2 hPa Calm   4 mph /  6.4 km/h 63 % 0 in /  0.0 mm
16:47 55.8 °F /  13.2 °C 43.7 °F /  6.5 °C 30.1 in /  1020.2 hPa SSE 2 mph /  3.2 km/h 4 mph /  6.4 km/h 64 % 0 in /  0.0 mm
16:52 55.2 °F /  12.9 °C 43.3 °F /  6.3 °C 30.1 in /  1020.2 hPa SSE 2 mph /  3.2 km/h 5 mph /  8.0 km/h 64 % 0 in /  0.0 mm
16:57 55 °F /  12.8 °C 43.5 °F /  6.4 °C 30.1 in /  1020.2 hPa Calm   5 mph /  8.0 km/h 65 % 0 in /  0.0 mm
17:02 54.7 °F /  12.6 °C 43.5 °F /  6.4 °C 30.1 in /  1020.2 hPa SSE 3 mph /  4.8 km/h 5 mph /  8.0 km/h 66 % 0 in /  0.0 mm
17:07 54.3 °F /  12.4 °C 43.2 °F /  6.2 °C 30.1 in /  1019.9 hPa SSE 1 mph /  1.6 km/h 4 mph /  6.4 km/h 66 % 0 in /  0.0 mm
17:12 54 °F /  12.2 °C 43.3 °F /  6.3 °C 30.1 in /  1019.9 hPa SSE 1 mph /  1.6 km/h 4 mph /  6.4 km/h 67 % 0 in /  0.0 mm
17:17 53.8 °F /  12.1 °C 43.5 °F /  6.4 °C 30.1 in /  1019.9 hPa Calm   4 mph /  6.4 km/h 68 % 0 in /  0.0 mm
17:22 53.4 °F /  11.9 °C 43.2 °F /  6.2 °C 30.1 in /  1019.9 hPa Calm   2 mph /  3.2 km/h 68 % 0 in /  0.0 mm
17:32 52.5 °F /  11.4 °C 42.6 °F /  5.9 °C 30.1 in /  1020.2 hPa SW 2 mph /  3.2 km/h 2 mph /  3.2 km/h 69 % 0 in /  0.0 mm
17:42 52.2 °F /  11.2 °C 43 °F /  6.1 °C 30.1 in /  1020.2 hPa SW 1 mph /  1.6 km/h 3 mph /  4.8 km/h 71 % 0 in /  0.0 mm
17:47 52.2 °F /  11.2 °C 43 °F /  6.1 °C 30.1 in /  1020.2 hPa SSW 1 mph /  1.6 km/h 3 mph /  4.8 km/h 71 % 0 in /  0.0 mm
17:52 51.8 °F /  11.0 °C 42.6 °F /  5.9 °C 30.1 in /  1020.2 hPa SSW 1 mph /  1.6 km/h 3 mph /  4.8 km/h 71 % 0 in /  0.0 mm
17:57 51.6 °F /  10.9 °C 43 °F /  6.1 °C 30.1 in /  1020.2 hPa SSW 1 mph /  1.6 km/h 3 mph /  4.8 km/h 72 % 0 in /  0.0 mm
18:02 51.6 °F /  10.9 °C 43 °F /  6.1 °C 30.1 in /  1020.2 hPa Calm   2 mph /  3.2 km/h 72 % 0 in /  0.0 mm
18:12 51.6 °F /  10.9 °C 43.3 °F /  6.3 °C 30.1 in /  1020.2 hPa Calm   2 mph /  3.2 km/h 73 % 0 in /  0.0 mm
18:17 51.6 °F /  10.9 °C 43.3 °F /  6.3 °C 30.1 in /  1020.2 hPa SW 1 mph /  1.6 km/h 1 mph /  1.6 km/h 73 % 0 in /  0.0 mm
18:27 51.6 °F /  10.9 °C 43.3 °F /  6.3 °C 30.1 in /  1020.2 hPa Calm   2 mph /  3.2 km/h 73 % 0 in /  0.0 mm
18:32 51.8 °F /  11.0 °C 43.3 °F /  6.3 °C 30.1 in /  1020.2 hPa Calm   2 mph /  3.2 km/h 73 % 0 in /  0.0 mm
18:42 51.1 °F /  10.6 °C 42.8 °F /  6.0 °C 30.1 in /  1019.9 hPa Calm   1 mph /  1.6 km/h 73 % 0 in /  0.0 mm
18:47 50.5 °F /  10.3 °C 43.3 °F /  6.3 °C 30.1 in /  1019.9 hPa Calm   1 mph /  1.6 km/h 76 % 0 in /  0.0 mm
18:52 50.5 °F /  10.3 °C 43 °F /  6.1 °C 30.1 in /  1019.9 hPa Calm   1 mph /  1.6 km/h 75 % 0 in /  0.0 mm
18:57 50.5 °F /  10.3 °C 43 °F /  6.1 °C 30.1 in /  1019.9 hPa Calm   1 mph /  1.6 km/h 75 % 0 in /  0.0 mm
19:02 50.5 °F /  10.3 °C 43.3 °F /  6.3 °C 30.1 in /  1019.9 hPa Calm   1 mph /  1.6 km/h 76 % 0 in /  0.0 mm
19:12 50.2 °F /  10.1 °C 43 °F /  6.1 °C 30.1 in /  1019.9 hPa Calm   1 mph /  1.6 km/h 76 % 0 in /  0.0 mm
19:17 49.8 °F /  9.9 °C 43 °F /  6.1 °C 30.1 in /  1019.9 hPa Calm     77 % 0 in /  0.0 mm
19:22 49.8 °F /  9.9 °C 43 °F /  6.1 °C 30.1 in /  1019.9 hPa Calm     77 % 0 in /  0.0 mm
19:27 49.8 °F /  9.9 °C 43 °F /  6.1 °C 30.1 in /  1019.9 hPa Calm     77 % 0 in /  0.0 mm
19:32 49.6 °F /  9.8 °C 42.8 °F /  6.0 °C 30.1 in /  1019.9 hPa Calm     77 % 0 in /  0.0 mm
19:42 48.9 °F /  9.4 °C 42.4 °F /  5.8 °C 30.1 in /  1019.9 hPa Calm     78 % 0 in /  0.0 mm
19:47 48.6 °F /  9.2 °C 42.6 °F /  5.9 °C 30.1 in /  1019.9 hPa Calm     80 % 0 in /  0.0 mm
19:52 48.7 °F /  9.3 °C 43.2 °F /  6.2 °C 30.1 in /  1019.9 hPa Calm     81 % 0 in /  0.0 mm
19:57 49.1 °F /  9.5 °C 43.2 °F /  6.2 °C 30.1 in /  1019.9 hPa Calm     80 % 0 in /  0.0 mm
20:02 49.1 °F /  9.5 °C 43.2 °F /  6.2 °C 30.1 in /  1019.9 hPa Calm     80 % 0 in /  0.0 mm
20:12 48.6 °F /  9.2 °C 43 °F /  6.1 °C 30.1 in /  1019.9 hPa Calm   2 mph /  3.2 km/h 81 % 0 in /  0.0 mm
20:17 48.2 °F /  9.0 °C 43 °F /  6.1 °C 30.1 in /  1019.9 hPa Calm   2 mph /  3.2 km/h 82 % 0 in /  0.0 mm
20:22 48.6 °F /  9.2 °C 43.3 °F /  6.3 °C 30.1 in /  1019.9 hPa Calm   2 mph /  3.2 km/h 82 % 0 in /  0.0 mm
20:32 48.4 °F /  9.1 °C 43.2 °F /  6.2 °C 30.1 in /  1019.9 hPa Calm   1 mph /  1.6 km/h 82 % 0 in /  0.0 mm
20:37 47.5 °F /  8.6 °C 41.9 °F /  5.5 °C 30.1 in /  1019.9 hPa Calm   1 mph /  1.6 km/h 81 % 0 in /  0.0 mm
20:47 47.5 °F /  8.6 °C 43.2 °F /  6.2 °C 30.1 in /  1019.9 hPa SW 1 mph /  1.6 km/h 2 mph /  3.2 km/h 85 % 0 in /  0.0 mm
20:52 48 °F /  8.9 °C 42.8 °F /  6.0 °C 30.1 in /  1019.9 hPa SSW 1 mph /  1.6 km/h 2 mph /  3.2 km/h 82 % 0 in /  0.0 mm
20:57 48 °F /  8.9 °C 42.8 °F /  6.0 °C 30.1 in /  1019.9 hPa SSW 1 mph /  1.6 km/h 4 mph /  6.4 km/h 82 % 0 in /  0.0 mm
21:02 47.8 °F /  8.8 °C 42.6 °F /  5.9 °C 30.1 in /  1019.9 hPa SSW 1 mph /  1.6 km/h 4 mph /  6.4 km/h 82 % 0 in /  0.0 mm
21:12 48 °F /  8.9 °C 43.2 °F /  6.2 °C 30.1 in /  1019.9 hPa Calm   3 mph /  4.8 km/h 83 % 0 in /  0.0 mm
21:17 48 °F /  8.9 °C 43.2 °F /  6.2 °C 30.1 in /  1019.9 hPa Calm   2 mph /  3.2 km/h 83 % 0 in /  0.0 mm
21:22 47.8 °F /  8.8 °C 42.6 °F /  5.9 °C 30.1 in /  1019.9 hPa Calm   1 mph /  1.6 km/h 82 % 0 in /  0.0 mm
21:27 47.7 °F /  8.7 °C 42.8 °F /  6.0 °C 30.1 in /  1019.9 hPa Calm   1 mph /  1.6 km/h 83 % 0 in /  0.0 mm
21:37 47.1 °F /  8.4 °C 42.3 °F /  5.7 °C 30.1 in /  1019.9 hPa Calm     83 % 0 in /  0.0 mm
21:42 47.1 °F /  8.4 °C 42.6 °F /  5.9 °C 30.1 in /  1019.9 hPa Calm   2 mph /  3.2 km/h 84 % 0 in /  0.0 mm
21:47 46.9 °F /  8.3 °C 42.4 °F /  5.8 °C 30.1 in /  1019.9 hPa Calm   2 mph /  3.2 km/h 84 % 0 in /  0.0 mm
21:52 46.8 °F /  8.2 °C 42.4 °F /  5.8 °C 30.1 in /  1019.9 hPa Calm   2 mph /  3.2 km/h 85 % 0 in /  0.0 mm
21:57 46.6 °F /  8.1 °C 42.3 °F /  5.7 °C 30.1 in /  1019.9 hPa Calm     85 % 0 in /  0.0 mm
22:02 46.2 °F /  7.9 °C 42.3 °F /  5.7 °C 30.1 in /  1019.9 hPa Calm     86 % 0 in /  0.0 mm
22:07 46 °F /  7.8 °C 42.1 °F /  5.6 °C 30.1 in /  1019.9 hPa Calm     86 % 0 in /  0.0 mm
22:17 45.9 °F /  7.7 °C 42.3 °F /  5.7 °C 30.1 in /  1019.9 hPa Calm     87 % 0 in /  0.0 mm
22:22 45.9 °F /  7.7 °C 42.3 °F /  5.7 °C 30.1 in /  1019.9 hPa Calm     87 % 0 in /  0.0 mm
22:27 45.9 °F /  7.7 °C 42.3 °F /  5.7 °C 30.1 in /  1019.9 hPa Calm   1 mph /  1.6 km/h 87 % 0 in /  0.0 mm
22:32 46 °F /  7.8 °C 42.4 °F /  5.8 °C 30.1 in /  1019.9 hPa Calm   1 mph /  1.6 km/h 87 % 0 in /  0.0 mm
22:42 45.9 °F /  7.7 °C 42.3 °F /  5.7 °C 30.1 in /  1019.5 hPa Calm   1 mph /  1.6 km/h 87 % 0 in /  0.0 mm
22:47 45.9 °F /  7.7 °C 42.3 °F /  5.7 °C 30.1 in /  1019.5 hPa Calm   1 mph /  1.6 km/h 87 % 0 in /  0.0 mm
22:52 45.9 °F /  7.7 °C 42.3 °F /  5.7 °C 30.1 in /  1019.5 hPa Calm   1 mph /  1.6 km/h 87 % 0 in /  0.0 mm
22:57 45.9 °F /  7.7 °C 42.3 °F /  5.7 °C 30.1 in /  1019.5 hPa Calm   1 mph /  1.6 km/h 87 % 0 in /  0.0 mm
23:02 45.9 °F /  7.7 °C 42.3 °F /  5.7 °C 30.1 in /  1019.5 hPa Calm   1 mph /  1.6 km/h 87 % 0 in /  0.0 mm
23:07 45.7 °F /  7.6 °C 42.1 °F /  5.6 °C 30.1 in /  1019.5 hPa Calm     87 % 0 in /  0.0 mm
23:12 45.5 °F /  7.5 °C 41.9 °F /  5.5 °C 30.1 in /  1019.5 hPa Calm     87 % 0 in /  0.0 mm
23:22 45.3 °F /  7.4 °C 41.9 °F /  5.5 °C 30.1 in /  1019.5 hPa Calm     88 % 0 in /  0.0 mm
23:27 45.3 °F /  7.4 °C 41.9 °F /  5.5 °C 30.1 in /  1019.5 hPa Calm     88 % 0 in /  0.0 mm
23:37 45 °F /  7.2 °C 41.5 °F /  5.3 °C 30.1 in /  1019.9 hPa Calm     88 % 0 in /  0.0 mm
23:42 45 °F /  7.2 °C 41.9 °F /  5.5 °C 30.1 in /  1019.9 hPa Calm     89 % 0 in /  0.0 mm
23:47 44.8 °F /  7.1 °C 42.1 °F /  5.6 °C 30.1 in /  1019.9 hPa Calm     90 % 0 in /  0.0 mm
23:52 45 °F /  7.2 °C 41.9 °F /  5.5 °C 30.1 in /  1019.9 hPa Calm   1 mph /  1.6 km/h 89 % 0 in /  0.0 mm
23:57 45 °F /  7.2 °C 42.3 °F /  5.7 °C 30.1 in /  1019.9 hPa Calm   1 mph /  1.6 km/h 90 % 0 in /  0.0 mm
Meteo18
Compliments of Weather Underground - 4 mb

Script developed by  Jim McMurry - jmcmurry@mwt.net Adapted for the template by  Wim van der Kuil - Leuven-Template.eu

You find our weather info also at:

European Weather Network

Weather Underground

Equipment we use:

Weather-station
Davis Vue

Weather-program
Meteohub

Weather-server
Raspberry PI 2 B+

Provider
1 and 1

Davis Vue

Meteohub

Raspberry PI 2 B+

1 and 1